| Station | Date | Time | Temp (°F) | RH (%) | Dew Pt (°F) | Wind Spd (mph) | Wind Dir (°) | Wind Gust (mph) | Latest Rain (In) | Daily Rain (In) | Daily Max Temp (°F) | Daily Min Temp (°F) |
|---|---|---|---|---|---|---|---|---|---|---|---|---|
| Montesol | 9/3/26 | 0000 | 54.0 0.1 | - | - | - | - | - | 0.00 | 0.29 | 67.8 0.3 | 52.5 10.6 |
| Pope Valley (Weeks Lake) | 9/3/26 | 0000 | 58.4 8.0 | 72 18 | 49.3 1.8 | 2.1 1.7 | ESE | 107 | 7.2 5.7 | 0.00 | 0.00 | 74.7 0.5 | 48.8 5.2 |
| Dollarhide Base | 9/3/26 | 0000 | 58.5 0.2 | 80 0 | 52.3 0.2 | 3.0 0.1 | SSE | 155 | 6.5 0.7 | 0.00 | 0.00 | 77.2 1.1 | 56.7 5.8 |
| Dollarhide 16A Remote | 9/3/26 | 0000 | 58.2 0.9 | 80 2 | 52.1 0.3 | - | - | - | - | - | 76.8 0.5 | 57.1 8.7 |
| Hardin Rd (Eakle) | 9/3/26 | 0000 | 58.7 0.6 | - | - | - | - | - | - | - | 77.2 1.5 | 54.6 6.3 |
| Angwin | 9/3/26 | 0000 | 52.4 0.9 | 87 1 | 48.7 0.4 | 3.4 0.1 | ENE | 72 | 8.4 0.6 | 0.00 | 0.05 | 65.6 1.0 | 51.0 1.3 |
| Lower Angwin (Pioneer) | 9/3/26 | 0000 | 53.2 0.7 | - | - | 2.6 1.1 | WSW | 250 | 8.3 3.7 | - | - | 68.9 0.7 | 52.4 1.5 |
| Las Posadas (Cal Fire) | 9/3/26 | 0000 | 55.4 0.1 | 87 3 | 51.6 0.9 | 9.4 2.2 | SSW | 207 | 16.2 2.9 | 0.00 | 0.07 | 70.2 0.2 | 53.0 2.2 |
| Lower Chiles Valley (Brown) | 9/3/26 | 0000 | 56.9 0.2 | 84 2 | 52.0 0.7 | 1.8 0.5 | W | 279 | 6.0 2.4 | 0.00 | 0.00 | 73.8 0.2 | 47.1 8.8 |
| Moss Creek Vineyard/Reservior | 9/2/26 | 2330 | 57.2 0.7 | 77 2 | 49.9 1.4 | - | - | - | 0.00 | 0.00 | 76.3 0.0 | 52.8 2.5 |
| Max | 58.7 | 87 | 52.3 | 9.4 | - | 16.2 | 0.00 | 0.29 | 77.2 | 57.1 | ||
| Avg | 56.3 | 81 | 50.9 | 3.7 | - | 8.8 | 0.00 | - | - | - | ||
| Min | 52.4 | 72 | 48.7 | 1.8 | - | 6.0 | 0.00 | 0.00 | 65.6 | 47.1 |
| Station | Date | Time | Temp (°F) | RH (%) | Dew Pt (°F) | Wind Spd (mph) | Wind Dir (°) | Wind Gust (mph) | Latest Rain (In) | Daily Rain (In) | Daily Max Temp (°F) | Daily Min Temp (°F) |
|---|---|---|---|---|---|---|---|---|---|---|---|---|
| Tenma (North Calistoga) | 9/3/26 | 0000 | 55.7 1.0 | - | - | - | - | - | 0.00 | 0.06 | 76.8 0.6 | 55.6 1.7 |
| Calistoga-Solari | 9/3/26 | 0000 | 54.7 0.8 | 92 4 | 52.4 2.1 | 1.6 0.0 | WNW | 290 | 3.8 0.3 | 0.00 | 0.09 | 74.5 0.4 | 54.4 0.8 |
| Calistoga-North | 9/3/26 | 0000 | 55.6 1.1 | 90 1 | 52.6 0.7 | - | - | - | 0.00 | 0.03 | 77.9 0.0 | 55.1 0.5 |
| Twomey Calistoga | 9/3/26 | 0000 | 55.5 6.0 | 89 0 | 52.3 5.9 | 1.9 1.8 | W | 277 | 3.4 2.3 | 0.00 | 0.02 | 77.5 0.0 | 49.8 0.3 |
| Paloma | 9/3/26 | 0000 | 58.8 4.2 | 83 6 | 53.5 2.3 | 3.5 2.1 | SSE | 150 | 9.5 7.2 | 0.00 | 0.00 | 77.9 0.4 | 56.1 1.5 |
| Calistoga (Ranch 78) | 9/3/26 | 0000 | 57.8 2.1 | 83 3 | 52.7 1.2 | 3.0 1.5 | NW | 312 | 6.1 3.0 | 0.00 | 0.01 | 76.0 0.3 | 54.8 0.3 |
| Diamond Mtn (Schramsberg) | 9/3/26 | 0000 | 54.8 1.0 | 87 4 | 51.0 0.2 | - | - | - | 0.00 | 0.04 | 73.0 0.2 | 54.5 0.8 |
| Diamond Mtn (McEachran) | 9/3/26 | 0000 | 57.7 1.0 | 84 2 | 53.0 1.7 | - | - | - | - | - | 73.0 1.1 | 56.7 2.4 |
| Deer Park | 9/3/26 | 0000 | 57.6 0.6 | 83 2 | 52.6 1.3 | 3.5 1.3 | NNW | 329 | 6.8 2.8 | 0.00 | 0.00 | 75.9 0.4 | 56.0 0.2 |
| St. Helena-North | 9/3/26 | 0000 | 59.2 2.3 | 77 0 | 52.0 2.2 | 2.4 0.5 | NW | 322 | 6.6 3.3 | 0.00 | 0.01 | 77.3 1.6 | 55.8 1.5 |
| St. Helena (NVV Office) | 9/3/26 | 0000 | 59.0 0.9 | - | - | 0.6 0.2 | NNE | 22 | 2.0 0.7 | 0.00 | 0.02 | 78.4 0.7 | 55.8 1.4 |
| Tiara Fria (East St. Helena) | 9/3/26 | 0000 | 59.8 3.1 | 79 3 | 53.1 2.0 | 2.7 2.1 | WNW | 292 | 5.6 4.1 | 0.00 | 0.01 | 77.2 0.9 | 53.4 2.1 |
| Prisoner Winery | 9/3/26 | 0000 | 56.2 0.6 | 87 1 | 52.4 1.0 | 0.2 0.2 | SSE | 148 | 1.0 0.3 | 0.00 | 0.04 | 76.9 0.1 | 53.4 0.2 |
| Rutherford Hill Estate | 9/3/26 | 0000 | 57.5 0.3 | 83 0 | 52.4 0.4 | 1.3 0.6 | E | 79 | 2.4 0.9 | 0.00 | 0.04 | 77.9 0.8 | 55.9 1.1 |
| Rutherford-North (Mee Ln) | 9/3/26 | 0000 | 55.2 1.3 | 86 0 | 51.0 1.3 | 0.8 0.3 | SSW | 208 | 2.2 0.4 | 0.00 | 0.04 | 76.9 0.4 | 51.7 1.4 |
| Rutherford (STS) | 9/3/26 | 0000 | 52.9 3.0 | 92 0 | 50.6 2.9 | 0.5 1.0 | WNW | 297 | 2.0 3.5 | 0.00 | 0.02 | 78.8 0.2 | 52.2 1.3 |
| Silver Oak OV | 9/3/26 | 0000 | 56.2 3.1 | 83 6 | 51.2 0.9 | 0.7 1.3 | E | 82 | 2.2 0.6 | 0.00 | 0.00 | 76.4 0.2 | 52.5 5.7 |
| Oakville-NE (Ranch 88) | 9/3/26 | 0000 | 53.3 3.5 | 82 6 | 48.0 1.5 | 0.0 0.0 | N | 0 | 0.0 0.0 | 0.00 | 0.00 | 77.1 0.3 | 51.6 4.3 |
| Crossroads Ranch | 9/3/26 | 0000 | 55.5 4.0 | 82 6 | 50.3 1.9 | 1.0 1.8 | ENE | 68 | 3.3 1.2 | 0.00 | 0.00 | 76.0 0.5 | 52.9 5.6 |
| Oakville | 9/3/26 | 0000 | 55.6 3.0 | 85 7 | 51.2 0.5 | 1.0 0.6 | ESE | 111 | 3.7 1.1 | 0.00 | 0.00 | 76.6 0.3 | 52.6 5.6 |
| To Kalon Remote (TKKE) | 9/3/26 | 0000 | 59.6 1.4 | - | - | - | - | - | - | - | 78.6 0.3 | 53.7 4.0 |
| To Kalon | 9/3/26 | 0000 | 61.0 1.6 | 76 3 | 53.4 0.4 | 2.5 0.7 | NNW | 330 | 7.3 3.8 | 0.00 | 0.00 | 76.8 0.3 | 53.6 4.6 |
| To Kalon Remote (TKN5) | 9/3/26 | 0000 | 60.4 1.9 | - | - | - | - | - | - | - | 77.4 0.4 | 53.7 4.0 |
| Jump Rock | 9/3/26 | 0000 | 49.5 2.7 | 95 6 | 48.2 4.5 | 0.1 0.0 | ENE | 61 | 1.1 0.1 | 0.00 | 0.20 | 69.5 0.5 | 43.7 2.5 |
| State Lane Ranch | 9/3/26 | 0000 | 53.0 0.2 | 92 4 | 50.6 1.0 | 1.2 0.3 | ENE | 63 | 2.9 0.3 | 0.00 | 0.00 | 77.3 0.9 | 50.4 2.3 |
| Yountville (Ranch 67) | 9/3/26 | 0000 | 54.0 1.0 | 86 4 | 50.0 2.4 | 1.1 0.8 | NE | 44 | 2.4 0.8 | 0.00 | 0.00 | 76.0 1.2 | 51.2 1.8 |
| Borreo (Soda Canyon) | 9/3/26 | 0000 | 52.1 0.6 | 92 5 | 49.9 2.1 | 1.4 0.6 | NW | 326 | 3.7 0.3 | 0.00 | 0.06 | 74.2 0.3 | 50.8 0.5 |
| Wappo Hill Floor | 9/3/26 | 0000 | 55.5 1.6 | 91 9 | 52.9 4.5 | 0.8 0.4 | SE | 142 | 2.1 0.3 | 0.00 | 0.05 | 76.5 0.3 | 52.1 1.8 |
| Wappo Hill | 9/3/26 | 0000 | 60.0 1.8 | 77 4 | 52.6 0.2 | 2.0 0.4 | NW | 305 | 6.0 1.9 | 0.00 | 0.12 | 76.2 0.4 | 54.5 3.1 |
| Stags Leap Dist (Chimney Rock) | 9/3/26 | 0000 | 54.8 1.6 | 92 4 | 52.3 0.4 | 1.5 0.2 | NE | 52 | 3.8 0.0 | 0.00 | 0.02 | 77.1 0.3 | 52.4 3.7 |
| Stags Leap Dist (Silverado Vineyards) | 9/3/26 | 0000 | 54.9 0.6 | 89 5 | 51.6 2.3 | 0.2 0.0 | ENE | 70 | 1.3 0.2 | 0.00 | 0.04 | 76.2 1.8 | 52.1 1.8 |
| Yountville-SE (Ranch 85) | 9/3/26 | 0000 | 56.3 1.5 | 87 2 | 52.4 0.7 | 0.4 1.3 | NW | 324 | 2.6 2.7 | 0.00 | 0.01 | 77.3 0.6 | 52.9 2.0 |
| Yountville-South (Ranch 87) | 9/3/26 | 0000 | 55.7 2.1 | 89 4 | 52.5 3.2 | 0.6 0.1 | SE | 135 | 1.9 0.5 | 0.00 | 0.05 | 76.4 0.1 | 52.4 0.5 |
| Max | 61.0 | 95 | 53.5 | 3.5 | - | 9.5 | 0.00 | 0.20 | 78.8 | 56.7 | ||
| Avg | 56.2 | 86 | 51.7 | 1.3 | - | 3.5 | 0.00 | - | - | - | ||
| Min | 49.5 | 76 | 48.0 | 0.0 | - | 0.0 | 0.00 | 0.00 | 69.5 | 43.7 |
| Station | Date | Time | Temp (°F) | RH (%) | Dew Pt (°F) | Wind Spd (mph) | Wind Dir (°) | Wind Gust (mph) | Latest Rain (In) | Daily Rain (In) | Daily Max Temp (°F) | Daily Min Temp (°F) |
|---|---|---|---|---|---|---|---|---|---|---|---|---|
| Mt. Veeder | 9/3/26 | 0000 | 53.2 1.0 | 93 14 | 51.2 3.6 | 0.4 0.4 | SW | 218 | 2.6 0.0 | 0.00 | 0.11 | 68.2 0.6 | 53.0 0.8 |
| Soda Canyon | 9/3/26 | 0000 | 52.4 1.4 | 88 0 | 48.8 1.5 | 0.2 0.2 | NNE | 14 | 1.2 0.2 | 0.00 | 0.01 | 75.8 0.0 | 52.1 0.9 |
| Big Ranch Rd | 9/3/26 | 0000 | 56.2 2.8 | - | - | - | - | - | - | - | 78.4 0.1 | 53.6 4.7 |
| Oak Knoll-East (Ranch 53) | 9/3/26 | 0000 | 56.6 0.2 | 84 1 | 51.7 0.2 | 0.4 0.4 | WNW | 296 | 4.0 4.0 | 0.00 | 0.01 | 78.2 1.5 | 53.1 3.4 |
| Napa-NW (Ranch 54) | 9/3/26 | 0000 | 54.0 4.5 | 86 6 | 49.9 2.5 | 0.2 0.2 | NNE | 16 | 1.8 1.1 | 0.00 | 0.02 | 79.5 1.8 | 53.7 3.9 |
| Frisinger Napa-NW | 9/3/26 | 0000 | 53.6 1.8 | 88 2 | 50.2 1.0 | 1.0 0.3 | WNW | 282 | 2.4 0.7 | 0.00 | 0.01 | 76.3 0.6 | 53.6 1.9 |
| Napa-North (Ranch 29) | 9/3/26 | 0000 | 55.3 4.3 | 88 5 | 51.7 2.6 | 0.1 0.2 | E | 84 | 1.5 0.3 | 0.00 | 0.02 | 75.5 0.0 | 52.5 5.7 |
| Mount George (Napa East) | 9/3/26 | 0000 | 56.2 2.7 | 93 3 | 54.3 1.8 | 0.1 0.8 | E | 98 | 1.5 0.5 | 0.00 | 0.04 | 74.2 0.6 | 52.7 2.6 |
| Napa-East (Palmaz 300') | 9/3/26 | 0000 | 54.6 1.4 | 93 4 | 52.6 0.4 | 0.0 0.0 | N | 0 | 0.0 0.0 | 0.00 | 0.04 | 78.2 1.2 | 54.5 1.1 |
| Napa-East (Palmaz 1200') | 7/4/26 | 0630 | 49.8 0.1 | 72 2 | 40.8 1.0 | 0.2 0.5 | E | 79 | 2.0 0.4 | - | - | 51.0 1.7 | 48.0 0.9 |
| Napa-East (Palmaz 1400') | 9/3/26 | 0000 | 53.8 0.8 | 95 2 | 52.5 1.4 | 0.9 0.1 | SW | 235 | 4.4 0.7 | 0.00 | 0.10 | 69.7 1.3 | 53.5 0.4 |
| Wooden Valley | 9/3/26 | 0000 | 58.6 2.3 | 75 8 | 50.8 0.5 | 1.5 0.2 | NNW | 331 | 6.7 3.2 | 0.00 | 0.01 | 73.0 0.8 | 50.8 4.9 |
| Napa-West Upper (Truchard) | 9/3/26 | 0000 | 55.7 0.8 | 99 2 | 55.4 0.1 | 0.0 2.5 | NE | 41 | 0.6 4.6 | 0.00 | 0.03 | 78.2 0.9 | 55.6 0.1 |
| Napa-West Lower (Truchard) | 9/3/26 | 0000 | 50.3 1.7 | 88 3 | 46.8 0.8 | - | - | - | - | - | 78.6 1.2 | 48.5 3.3 |
| Sunset Rd | 9/3/26 | 0000 | 53.8 3.2 | 88 1 | 50.4 2.7 | 0.4 0.8 | N | 357 | 1.5 1.9 | 0.00 | 0.02 | 76.0 1.4 | 51.2 4.4 |
| Napa-South (Toyon Farms) | 9/3/26 | 0000 | 58.1 0.3 | 92 1 | 55.9 0.0 | 0.2 1.1 | W | 270 | 2.1 1.5 | 0.00 | 0.02 | 77.0 1.6 | 55.1 1.6 |
| Dealy Lane (Ranch 80) | 9/2/26 | 2345 | 56.4 1.7 | 88 2 | 53.0 2.1 | 0.3 0.2 | W | 278 | 1.9 0.1 | 0.00 | 0.02 | 76.8 0.8 | 52.2 0.6 |
| Carneros (Saintsbury) | 9/3/26 | 0000 | 56.4 1.1 | 89 0 | 53.1 1.2 | 2.0 0.1 | WNW | 289 | 3.9 0.7 | 0.00 | 0.00 | 75.8 1.4 | 51.1 4.0 |
| Suscol Lower (Ranch 35) | 9/3/26 | 0000 | 57.3 3.3 | 87 2 | 53.6 2.6 | 0.9 1.7 | NNE | 20 | 3.4 0.8 | 0.00 | 0.01 | 76.2 1.0 | 54.0 0.2 |
| Suscol Mtn (Ranch 93) | 9/3/26 | 0000 | 56.2 0.4 | 92 2 | 53.8 0.1 | 5.6 1.0 | NNW | 344 | 9.6 2.6 | 0.00 | 0.10 | 74.7 0.7 | 56.0 1.6 |
| Suscol Upper (Ranch 92) | 9/3/26 | 0000 | 57.0 0.7 | 89 2 | 53.9 0.0 | 0.3 0.3 | WNW | 287 | 4.2 4.2 | 0.00 | 0.05 | 74.6 2.9 | 55.5 0.3 |
| Carneros (Mitsuko) | 9/3/26 | 0000 | 57.4 2.6 | - | - | - | - | - | - | - | 77.2 2.0 | 49.1 3.3 |
| Sugarloaf West | 9/3/26 | 0000 | 58.2 2.9 | 89 2 | 55.0 2.4 | 2.5 0.2 | N | 355 | 3.9 0.5 | 0.00 | 0.01 | 74.2 1.4 | 53.8 1.4 |
| Stanly (Ranch 45) | 9/3/26 | 0000 | 58.8 2.6 | 86 2 | 54.6 3.2 | 2.4 2.0 | NW | 325 | 5.5 4.0 | 0.00 | 0.00 | 74.9 0.8 | 50.5 4.8 |
| Carneros (Las Amigas Rd) | 9/3/26 | 0000 | 57.5 2.1 | - | - | - | - | - | - | - | 75.3 2.0 | 52.0 3.1 |
| Carneros (Milton Rd) | 9/3/26 | 0000 | 59.3 5.9 | 87 3 | 55.4 6.7 | - | - | - | 0.00 | 0.00 | 75.1 0.9 | 51.0 2.3 |
| Carneros (Ranch 71) | 9/3/26 | 0000 | 57.3 0.3 | 91 4 | 54.7 1.0 | 3.1 3.0 | W | 280 | 5.1 4.3 | 0.00 | 0.01 | 74.9 0.4 | 56.9 0.2 |
| Carneros Upper (Ranch 81) | 9/3/26 | 0000 | 57.0 2.1 | 90 6 | 54.2 0.1 | 6.7 4.7 | W | 269 | 9.4 4.4 | - | - | 75.9 2.1 | 57.0 0.1 |
| Carneros Lower (Ranch 81) | 9/3/26 | 0000 | 57.2 2.2 | 90 5 | 54.2 3.9 | 0.0 0.0 | E | 82 | 0.8 0.8 | 0.00 | 0.00 | 80.3 1.7 | 52.0 3.0 |
| Toyon Remote 1 | 9/3/26 | 0000 | 54.1 0.3 | - | - | - | - | - | - | - | 78.5 0.1 | 50.3 2.9 |
| Toyon Remote 2 | 9/3/26 | 0000 | 57.6 3.3 | - | - | - | - | - | - | - | 76.8 1.6 | 50.7 1.8 |
| Toyon Remote 3 | 9/3/26 | 0000 | 55.5 1.3 | - | - | - | - | - | - | - | 80.3 1.4 | 50.2 2.3 |
| Max | 59.3 | 99 | 55.9 | 6.7 | - | 9.6 | 0.00 | 0.11 | 80.3 | 57.0 | ||
| Avg | 56.0 | 89 | 52.7 | 1.3 | - | 3.4 | 0.00 | - | - | - | ||
| Min | 50.3 | 75 | 46.8 | 0.0 | - | 0.0 | 0.00 | 0.00 | 68.2 | 48.5 |